Time;durP1;ratioP1;P1;durP2;ratioP2;P2;SDS_P1;SDS_P2;PMS_P1;PMS_P2;Temp;Humidity;BMP_temperature;BMP_pressure;BME280_temperature;BME280_humidity;BME280_pressure;Samples;Min_cycle;Max_cycle;Signal;HPM_P1;HPM_P2
2022/10/19 00:01:35;;;;;;;0.15;0.15;;;17.50;93.20;;;;;;3997707;29;20072;-64
2022/10/19 00:04:16;;;;;;;0.10;0.10;;;17.50;92.90;;;;;;4000716;29;20126;-63
2022/10/19 00:06:57;;;;;;;0.05;0.05;;;17.50;92.90;;;;;;4014392;29;20045;-63
2022/10/19 00:09:38;;;;;;;0.00;0.00;;;17.50;92.90;;;;;;4014450;29;20492;-64
2022/10/19 00:12:19;;;;;;;0.08;0.08;;;17.50;92.90;;;;;;4015461;29;20076;-64
2022/10/19 00:15:00;;;;;;;0.00;0.00;;;17.50;92.90;;;;;;4015365;29;20194;-64
2022/10/19 00:17:42;;;;;;;0.00;0.00;;;17.50;93.00;;;;;;4012730;29;20065;-65
2022/10/19 00:20:23;;;;;;;0.00;0.00;;;17.50;92.90;;;;;;4012504;29;20068;-65
2022/10/19 00:23:03;;;;;;;0.00;0.00;;;17.50;92.90;;;;;;4014860;29;20072;-64
2022/10/19 00:25:54;;;;;;;0.00;0.00;;;17.50;93.40;;;;;;4013634;29;20060;-64
2022/10/19 00:28:36;;;;;;;0.15;0.15;;;17.50;93.00;;;;;;4015264;29;20060;-67
2022/10/19 00:31:18;;;;;;;0.00;0.00;;;17.50;93.00;;;;;;4015090;29;20057;-68
2022/10/19 00:34:00;;;;;;;0.00;0.00;;;17.50;93.00;;;;;;4014716;29;20120;-67
2022/10/19 00:36:41;;;;;;;0.00;0.00;;;17.50;93.00;;;;;;4014959;29;20056;-66
2022/10/19 00:39:22;;;;;;;0.00;0.00;;;17.50;93.10;;;;;;4015087;29;20212;-67
2022/10/19 00:42:03;;;;;;;0.00;0.00;;;17.40;93.10;;;;;;4015614;29;20068;-67
2022/10/19 00:45:05;;;;;;;0.00;0.00;;;17.50;93.10;;;;;;4003285;29;20074;-67
2022/10/19 00:47:46;;;;;;;0.00;0.00;;;17.40;93.00;;;;;;4014790;29;20153;-65
2022/10/19 00:50:29;;;;;;;0.00;0.00;;;17.50;93.10;;;;;;4015000;29;20056;-65
2022/10/19 00:53:10;;;;;;;0.00;0.00;;;17.40;93.10;;;;;;4015511;29;20159;-66
2022/10/19 00:55:51;;;;;;;0.00;0.00;;;17.40;93.00;;;;;;4000058;29;20101;-65
2022/10/19 00:58:33;;;;;;;0.00;0.00;;;17.40;93.10;;;;;;4030469;29;20060;-65
2022/10/19 01:01:15;;;;;;;;;;;17.40;93.00;;;;;;4033647;29;20197;-65
2022/10/19 01:03:57;;;;;;;0.00;0.00;;;17.40;93.10;;;;;;4021713;29;20288;-65
2022/10/19 01:06:40;;;;;;;0.00;0.00;;;17.40;93.00;;;;;;4032808;29;20060;-65
2022/10/19 01:09:21;;;;;;;1.35;1.25;;;17.40;93.10;;;;;;4032433;29;20068;-67
2022/10/19 01:12:10;;;;;;;0.00;0.00;;;17.40;93.10;;;;;;4032843;29;20063;-67
2022/10/19 01:15:04;;;;;;;0.00;0.00;;;17.40;93.10;;;;;;4032283;29;20052;-67
2022/10/19 01:17:56;;;;;;;1.20;1.20;;;17.40;93.10;;;;;;4032069;29;20116;-66
2022/10/19 01:21:06;;;;;;;;;;;17.40;93.10;;;;;;4021386;29;20092;-66
2022/10/19 01:24:18;;;;;;;0.00;0.00;;;17.40;93.10;;;;;;4020962;29;19935;-66
2022/10/19 01:27:37;;;;;;;0.00;0.00;;;17.40;93.10;;;;;;4020567;29;20056;-66
2022/10/19 01:30:32;;;;;;;0.00;0.00;;;17.40;93.10;;;;;;4032038;29;20055;-67
2022/10/19 01:33:33;;;;;;;0.00;0.00;;;17.40;93.50;;;;;;4032198;29;20142;-67
2022/10/19 01:36:22;;;;;;;0.00;0.00;;;17.30;93.10;;;;;;4017440;29;20137;-66
2022/10/19 01:39:10;;;;;;;0.00;0.00;;;17.30;93.10;;;;;;4032413;29;20184;-67
2022/10/19 01:41:59;;;;;;;0.00;0.00;;;17.30;93.10;;;;;;4027430;29;20060;-66
2022/10/19 01:44:45;;;;;;;0.10;0.10;;;17.30;93.10;;;;;;4032353;29;20073;-65
2022/10/19 01:47:32;;;;;;;0.00;0.00;;;17.30;93.10;;;;;;4032652;29;20059;-65
2022/10/19 01:50:17;;;;;;;0.00;0.00;;;17.30;93.20;;;;;;4020904;29;20048;-65
2022/10/19 01:52:59;;;;;;;0.00;0.00;;;17.30;93.20;;;;;;4032060;29;20460;-66
2022/10/19 01:55:42;;;;;;;;;;;17.30;93.20;;;;;;4004001;29;20512;-65
2022/10/19 01:58:27;;;;;;;0.00;0.00;;;17.30;93.20;;;;;;4015401;29;20375;-64
2022/10/19 02:01:13;;;;;;;0.00;0.00;;;17.30;93.10;;;;;;4016559;29;20060;-65
2022/10/19 02:03:56;;;;;;;0.00;0.00;;;17.30;93.20;;;;;;4016949;29;20184;-67
2022/10/19 02:06:37;;;;;;;0.00;0.00;;;17.30;93.20;;;;;;4016665;29;20190;-64
2022/10/19 02:09:19;;;;;;;;;;;17.30;93.20;;;;;;4017016;29;20060;-65
2022/10/19 02:12:03;;;;;;;0.00;0.00;;;17.30;93.20;;;;;;4016666;29;20463;-66
2022/10/19 02:14:49;;;;;;;0.00;0.00;;;17.30;93.60;;;;;;4015970;29;20056;-63
2022/10/19 02:17:34;;;;;;;0.00;0.00;;;17.30;93.20;;;;;;4001767;29;20064;-65
2022/10/19 02:20:17;;;;;;;0.00;0.00;;;17.20;93.20;;;;;;4003449;29;20061;-66
2022/10/19 02:22:57;;;;;;;0.00;0.00;;;17.30;93.20;;;;;;4016499;29;20052;-65
2022/10/19 02:25:38;;;;;;;0.00;0.00;;;17.30;93.20;;;;;;4005726;29;20056;-65
2022/10/19 02:28:20;;;;;;;0.00;0.00;;;17.30;93.60;;;;;;4003712;29;20052;-66
2022/10/19 02:31:01;;;;;;;0.00;0.00;;;17.30;93.20;;;;;;4001779;29;20481;-66
2022/10/19 02:33:43;;;;;;;0.00;0.00;;;17.30;93.60;;;;;;4013800;29;20393;-65
2022/10/19 02:36:25;;;;;;;0.00;0.00;;;17.30;93.20;;;;;;4000959;29;20190;-64
2022/10/19 02:39:07;;;;;;;0.00;0.00;;;17.20;93.30;;;;;;4001528;29;20090;-65
2022/10/19 02:41:53;;;;;;;0.00;0.00;;;17.20;93.20;;;;;;4005406;29;20064;-65
2022/10/19 02:44:41;;;;;;;0.00;0.00;;;17.20;93.20;;;;;;4000576;29;20060;-65
2022/10/19 02:47:25;;;;;;;0.00;0.00;;;17.20;93.30;;;;;;4001299;29;20076;-65
2022/10/19 02:50:08;;;;;;;4.90;2.67;;;17.20;93.70;;;;;;4004988;29;20056;-65
2022/10/19 02:52:50;;;;;;;0.00;0.00;;;17.20;93.30;;;;;;4007287;29;20053;-65
2022/10/19 02:55:31;;;;;;;0.00;0.00;;;17.20;93.30;;;;;;4016373;29;20516;-65
2022/10/19 02:58:12;;;;;;;0.00;0.00;;;17.20;93.30;;;;;;4016019;29;20056;-65
2022/10/19 03:00:54;;;;;;;0.00;0.00;;;17.20;93.20;;;;;;4016301;29;20061;-65
2022/10/19 03:03:35;;;;;;;0.00;0.00;;;17.20;93.20;;;;;;4016044;29;20052;-65
2022/10/19 03:06:16;;;;;;;0.00;0.00;;;17.20;93.20;;;;;;4015664;29;20055;-66
2022/10/19 03:08:58;;;;;;;0.00;0.00;;;17.20;93.20;;;;;;4003485;29;20518;-66
2022/10/19 03:11:39;;;;;;;0.00;0.00;;;17.20;93.20;;;;;;4000378;29;20110;-64
2022/10/19 03:14:20;;;;;;;0.00;0.00;;;17.20;93.20;;;;;;4000729;29;20061;-64
2022/10/19 03:17:02;;;;;;;0.00;0.00;;;17.10;93.20;;;;;;4000881;29;20062;-64
2022/10/19 03:19:42;;;;;;;0.00;0.00;;;17.10;93.20;;;;;;4003351;29;20060;-65
2022/10/19 03:22:23;;;;;;;0.00;0.00;;;17.10;93.20;;;;;;4015014;29;20184;-65
2022/10/19 03:25:06;;;;;;;0.00;0.00;;;17.10;93.20;;;;;;4015867;29;20654;-65
2022/10/19 03:27:47;;;;;;;0.00;0.00;;;17.10;93.20;;;;;;4015720;29;20068;-65
2022/10/19 03:30:28;;;;;;;0.00;0.00;;;17.10;93.20;;;;;;4015809;29;20061;-65
2022/10/19 03:33:09;;;;;;;0.00;0.00;;;17.10;93.20;;;;;;4015157;29;20052;-65
2022/10/19 03:35:50;;;;;;;0.00;0.00;;;17.10;93.20;;;;;;4015968;29;20068;-64
2022/10/19 03:38:31;;;;;;;0.00;0.00;;;17.10;93.20;;;;;;4015432;29;20177;-65
2022/10/19 03:41:14;;;;;;;0.00;0.00;;;17.10;93.20;;;;;;4015985;29;20060;-65
2022/10/19 03:43:55;;;;;;;0.30;0.30;;;17.10;93.20;;;;;;4014654;29;20517;-66
2022/10/19 03:46:36;;;;;;;0.00;0.00;;;17.10;93.20;;;;;;3994150;29;20520;-66
2022/10/19 03:49:18;;;;;;;0.00;0.00;;;17.10;93.20;;;;;;4015695;29;20128;-66
2022/10/19 03:51:58;;;;;;;0.00;0.00;;;17.10;93.20;;;;;;4015524;29;20065;-65
2022/10/19 03:54:39;;;;;;;0.00;0.00;;;17.10;93.20;;;;;;4007749;29;20133;-65
2022/10/19 03:57:22;;;;;;;0.00;0.00;;;17.00;93.20;;;;;;3989399;29;20074;-65
2022/10/19 04:00:04;;;;;;;0.00;0.00;;;17.10;93.20;;;;;;4014571;29;20065;-65
2022/10/19 04:02:51;;;;;;;0.00;0.00;;;17.00;93.10;;;;;;4004023;29;20056;-65
2022/10/19 04:05:32;;;;;;;1.13;0.63;;;17.00;93.10;;;;;;4003713;29;20080;-64
2022/10/19 04:08:12;;;;;;;1.20;1.08;;;17.00;93.10;;;;;;4015679;29;20378;-64
2022/10/19 04:10:58;;;;;;;0.03;0.03;;;17.00;93.10;;;;;;4015154;29;20056;-63
2022/10/19 04:13:40;;;;;;;0.00;0.00;;;17.00;93.10;;;;;;4014548;29;20064;-63
2022/10/19 04:16:23;;;;;;;0.00;0.00;;;17.00;93.10;;;;;;4015713;29;20059;-63
2022/10/19 04:19:04;;;;;;;0.00;0.00;;;17.00;93.10;;;;;;4015279;29;20059;-63
2022/10/19 04:21:48;;;;;;;0.00;0.00;;;17.00;93.10;;;;;;4014920;29;20433;-63
2022/10/19 04:24:29;;;;;;;0.00;0.00;;;17.00;93.10;;;;;;4013945;29;20055;-64
2022/10/19 04:27:10;;;;;;;0.00;0.00;;;17.00;93.00;;;;;;4015216;29;20130;-64
2022/10/19 04:29:52;;;;;;;0.00;0.00;;;17.00;92.90;;;;;;4015343;29;20049;-64
2022/10/19 04:32:33;;;;;;;0.00;0.00;;;17.00;92.70;;;;;;4006421;29;20056;-64
2022/10/19 04:35:14;;;;;;;0.00;0.00;;;17.00;92.80;;;;;;4005897;29;20051;-64
2022/10/19 04:37:54;;;;;;;0.00;0.00;;;17.00;92.90;;;;;;4018360;29;20139;-65
2022/10/19 04:40:36;;;;;;;0.00;0.00;;;16.90;92.90;;;;;;4006672;29;20125;-64
2022/10/19 04:43:17;;;;;;;;;;;16.90;92.90;;;;;;4018380;29;20060;-64
2022/10/19 04:46:02;;;;;;;0.00;0.00;;;16.90;92.90;;;;;;4018374;29;19930;-64
2022/10/19 04:48:44;;;;;;;0.00;0.00;;;16.90;92.90;;;;;;4018122;29;20433;-66
2022/10/19 04:51:26;;;;;;;0.00;0.00;;;16.90;93.00;;;;;;4018237;29;20065;-65
2022/10/19 04:54:07;;;;;;;0.00;0.00;;;16.90;93.40;;;;;;4015584;29;20065;-65
2022/10/19 04:56:48;;;;;;;0.00;0.00;;;16.90;93.00;;;;;;3998597;29;20053;-65
2022/10/19 04:59:29;;;;;;;;;;;16.90;93.00;;;;;;4001606;29;20076;-65
2022/10/19 05:02:12;;;;;;;0.00;0.00;;;16.90;93.00;;;;;;4017755;29;19931;-65
2022/10/19 05:04:52;;;;;;;0.00;0.00;;;16.90;93.00;;;;;;4017192;29;20053;-66
2022/10/19 05:07:33;;;;;;;0.00;0.00;;;16.80;93.00;;;;;;4017777;29;20092;-65
2022/10/19 05:10:15;;;;;;;;;;;16.80;93.00;;;;;;4007019;29;20132;-65
2022/10/19 05:12:55;;;;;;;0.00;0.00;;;16.80;93.00;;;;;;4015813;29;19931;-64
2022/10/19 05:15:36;;;;;;;0.00;0.00;;;16.90;93.00;;;;;;4017872;29;20060;-64
2022/10/19 05:18:19;;;;;;;0.00;0.00;;;16.80;93.00;;;;;;4006551;29;20181;-65
2022/10/19 05:21:04;;;;;;;0.00;0.00;;;16.90;93.00;;;;;;4017904;29;20056;-65
2022/10/19 05:23:45;;;;;;;0.00;0.00;;;16.80;93.00;;;;;;4009753;29;20129;-66
2022/10/19 05:26:28;;;;;;;0.00;0.00;;;16.80;93.00;;;;;;4017395;29;20065;-65
2022/10/19 05:29:12;;;;;;;0.00;0.00;;;16.80;93.00;;;;;;4017386;29;20065;-65
2022/10/19 05:31:52;;;;;;;0.00;0.00;;;16.80;93.00;;;;;;4017385;29;20125;-65
2022/10/19 05:34:34;;;;;;;0.00;0.00;;;16.80;92.90;;;;;;4017159;29;20506;-65
2022/10/19 05:37:16;;;;;;;0.00;0.00;;;16.90;93.40;;;;;;4002019;29;20137;-64
2022/10/19 05:39:57;;;;;;;0.00;0.00;;;16.90;93.00;;;;;;4001983;29;20056;-65
2022/10/19 05:42:38;;;;;;;0.00;0.00;;;16.80;92.90;;;;;;4013078;29;20055;-65
2022/10/19 05:45:19;;;;;;;0.10;0.10;;;16.80;92.90;;;;;;4005498;29;20048;-65
2022/10/19 05:48:00;;;;;;;0.00;0.00;;;16.80;92.90;;;;;;4017115;29;20417;-64
2022/10/19 05:50:52;;;;;;;0.00;0.00;;;16.80;92.90;;;;;;4017662;29;20060;-65
2022/10/19 05:53:34;;;;;;;0.00;0.00;;;16.80;93.00;;;;;;4011395;29;20575;-65
2022/10/19 05:56:17;;;;;;;0.00;0.00;;;16.80;93.00;;;;;;4017229;29;20057;-65
2022/10/19 05:59:00;;;;;;;0.00;0.00;;;16.90;93.10;;;;;;4014116;29;20113;-64
2022/10/19 06:01:41;;;;;;;0.00;0.00;;;16.90;93.20;;;;;;4016731;29;20151;-67
2022/10/19 06:04:22;;;;;;;0.38;0.38;;;16.90;93.40;;;;;;4018267;29;20060;-63
2022/10/19 06:07:04;;;;;;;0.00;0.00;;;17.00;93.60;;;;;;4002258;29;20065;-62
2022/10/19 06:09:45;;;;;;;0.20;0.20;;;17.00;93.40;;;;;;4017588;29;20060;-63
2022/10/19 06:12:25;;;;;;;0.60;0.60;;;17.00;93.30;;;;;;4002477;29;20185;-63
2022/10/19 06:15:07;;;;;;;0.00;0.00;;;17.00;93.10;;;;;;4000950;29;20061;-64
2022/10/19 06:17:51;;;;;;;0.00;0.00;;;17.00;93.00;;;;;;4001170;29;20057;-63
2022/10/19 06:20:34;;;;;;;0.00;0.00;;;17.00;93.00;;;;;;4017719;29;20059;-64
2022/10/19 06:23:16;;;;;;;0.00;0.00;;;17.00;93.00;;;;;;4002101;29;20399;-64
2022/10/19 06:25:57;;;;;;;0.00;0.00;;;17.00;92.90;;;;;;4016418;29;20061;-63
2022/10/19 06:28:41;;;;;;;0.30;0.30;;;16.90;92.90;;;;;;4004251;29;20101;-64
2022/10/19 06:31:22;;;;;;;0.00;0.00;;;16.90;92.90;;;;;;4017284;29;20145;-64
2022/10/19 06:34:04;;;;;;;0.00;0.00;;;16.90;92.90;;;;;;4003263;29;20082;-63
2022/10/19 06:36:44;;;;;;;1.35;0.55;;;16.90;92.90;;;;;;4011835;29;20060;-63
2022/10/19 06:39:26;;;;;;;0.00;0.00;;;16.90;92.90;;;;;;3997363;29;20142;-64
2022/10/19 06:42:08;;;;;;;0.00;0.00;;;16.90;92.90;;;;;;4002155;29;20074;-65
2022/10/19 06:44:49;;;;;;;0.00;0.00;;;16.90;92.90;;;;;;3999334;29;20140;-66
2022/10/19 06:47:31;;;;;;;0.00;0.00;;;16.90;92.90;;;;;;4008053;29;20141;-64
2022/10/19 06:50:13;;;;;;;0.00;0.00;;;16.80;92.90;;;;;;4015636;29;20051;-64
2022/10/19 06:52:54;;;;;;;0.93;0.93;;;16.80;92.90;;;;;;4015610;29;20044;-63
2022/10/19 06:55:37;;;;;;;0.00;0.00;;;16.80;92.90;;;;;;4017113;29;20133;-63
2022/10/19 06:58:18;;;;;;;0.00;0.00;;;16.80;92.80;;;;;;4017648;29;20068;-63
2022/10/19 07:01:00;;;;;;;0.00;0.00;;;16.80;92.80;;;;;;4029226;29;20108;-64
2022/10/19 07:03:42;;;;;;;0.00;0.00;;;16.80;92.80;;;;;;4029084;29;20099;-61
2022/10/19 07:06:23;;;;;;;;;;;16.80;92.80;;;;;;4029518;29;20072;-69
2022/10/19 07:09:04;;;;;;;0.00;0.00;;;16.80;92.30;;;;;;4001919;29;19950;-63
2022/10/19 07:11:46;;;;;;;0.00;0.00;;;16.80;92.60;;;;;;4013954;29;20109;-64
2022/10/19 07:14:28;;;;;;;0.00;0.00;;;16.80;92.70;;;;;;4014058;29;20064;-65
2022/10/19 07:17:11;;;;;;;0.00;0.00;;;16.80;92.70;;;;;;4013865;29;20206;-64
2022/10/19 07:19:52;;;;;;;0.00;0.00;;;16.70;92.80;;;;;;3991870;29;20412;-64
2022/10/19 07:22:33;;;;;;;0.00;0.00;;;16.80;92.80;;;;;;4013161;29;20084;-64
2022/10/19 07:25:14;;;;;;;0.70;0.70;;;16.70;92.80;;;;;;4013954;29;20509;-64
2022/10/19 07:27:56;;;;;;;0.00;0.00;;;16.70;92.90;;;;;;4028276;29;20499;-64
2022/10/19 07:30:38;;;;;;;0.00;0.00;;;16.80;92.80;;;;;;4028970;29;20147;-64
2022/10/19 07:33:19;;;;;;;0.00;0.00;;;16.70;92.80;;;;;;4028701;29;20412;-65
2022/10/19 07:36:01;;;;;;;0.00;0.00;;;16.70;92.80;;;;;;4029422;29;20063;-64
2022/10/19 07:38:42;;;;;;;0.00;0.00;;;16.70;92.80;;;;;;4028675;29;20555;-64
2022/10/19 07:41:26;;;;;;;0.20;0.20;;;16.70;92.80;;;;;;4026721;29;20496;-62
2022/10/19 07:44:08;;;;;;;0.55;0.55;;;16.70;92.80;;;;;;4016429;29;20158;-63
2022/10/19 07:46:50;;;;;;;0.00;0.00;;;16.70;92.80;;;;;;4025369;29;20079;-63
2022/10/19 07:49:31;;;;;;;0.00;0.00;;;16.70;92.70;;;;;;4028114;29;20087;-63
2022/10/19 07:52:12;;;;;;;0.00;0.00;;;16.70;92.70;;;;;;4012583;29;20085;-63
2022/10/19 07:54:54;;;;;;;0.00;0.00;;;16.70;92.70;;;;;;4013207;29;20060;-63
2022/10/19 07:57:35;;;;;;;;;;;16.70;92.70;;;;;;4021704;29;20484;-64
2022/10/19 08:00:17;;;;;;;0.00;0.00;;;16.70;92.70;;;;;;4016582;29;19954;-65
2022/10/19 08:02:59;;;;;;;0.00;0.00;;;16.70;92.70;;;;;;4016772;29;20112;-63
2022/10/19 08:06:01;;;;;;;0.00;0.00;;;16.70;92.70;;;;;;4028086;29;20115;-64
2022/10/19 08:08:46;;;;;;;0.00;0.00;;;16.70;92.70;;;;;;4016065;29;20293;-64
2022/10/19 08:11:29;;;;;;;0.00;0.00;;;16.70;92.70;;;;;;4011348;29;20064;-64
2022/10/19 08:14:11;;;;;;;0.00;0.00;;;16.70;92.70;;;;;;4014951;29;20060;-64
2022/10/19 08:16:53;;;;;;;0.10;0.10;;;16.70;92.70;;;;;;4028265;29;20389;-64
2022/10/19 08:19:34;;;;;;;0.00;0.00;;;16.70;92.30;;;;;;4027684;29;20048;-64
2022/10/19 08:22:15;;;;;;;0.10;0.10;;;16.70;91.90;;;;;;4027617;29;20081;-63
2022/10/19 08:24:57;;;;;;;0.00;0.00;;;16.70;92.10;;;;;;4011808;29;20068;-62
2022/10/19 08:27:38;;;;;;;0.00;0.00;;;16.70;92.20;;;;;;4018417;29;20175;-63
2022/10/19 08:30:19;;;;;;;0.00;0.00;;;16.70;92.20;;;;;;4026825;29;20068;-64
2022/10/19 08:33:01;;;;;;;0.00;0.00;;;16.70;92.30;;;;;;4027104;29;20373;-64
2022/10/19 08:35:43;;;;;;;5.93;1.25;;;16.70;92.30;;;;;;4017659;29;20096;-64
2022/10/19 08:38:24;;;;;;;0.00;0.00;;;16.70;92.40;;;;;;4016595;29;20068;-65
2022/10/19 08:41:21;;;;;;;0.00;0.00;;;16.70;92.40;;;;;;4028026;29;20180;-64
2022/10/19 08:44:27;;;;;;;0.00;0.00;;;16.70;92.30;;;;;;4026596;29;20110;-65
2022/10/19 08:47:17;;;;;;;1.42;1.33;;;16.60;92.20;;;;;;4028642;29;20083;-64
2022/10/19 08:50:09;;;;;;;7.32;1.10;;;16.70;92.30;;;;;;4026961;29;20063;-65
2022/10/19 08:52:55;;;;;;;0.00;0.00;;;16.70;92.30;;;;;;4028132;29;20245;-65
2022/10/19 08:55:44;;;;;;;0.00;0.00;;;16.70;92.00;;;;;;4027273;29;20681;-65
2022/10/19 08:58:41;;;;;;;0.00;0.00;;;16.70;91.70;;;;;;4012685;29;20223;-65
2022/10/19 09:01:33;;;;;;;0.00;0.00;;;16.70;92.00;;;;;;4011821;29;20061;-65
2022/10/19 09:04:22;;;;;;;0.00;0.00;;;16.70;92.10;;;;;;4012033;29;20120;-65
2022/10/19 09:07:26;;;;;;;0.20;0.20;;;16.70;91.90;;;;;;4012347;29;20088;-67
2022/10/19 09:10:20;;;;;;;0.00;0.00;;;16.70;91.70;;;;;;4012020;29;20171;-66
2022/10/19 09:13:03;;;;;;;0.00;0.00;;;16.70;91.80;;;;;;4011958;29;20057;-63
2022/10/19 09:15:46;;;;;;;0.00;0.00;;;16.70;91.30;;;;;;4012365;29;20063;-63
2022/10/19 09:18:32;;;;;;;0.65;0.65;;;16.70;91.40;;;;;;4000781;29;20056;-62
2022/10/19 09:21:16;;;;;;;0.20;0.20;;;16.70;92.50;;;;;;4013522;29;20051;-63
2022/10/19 09:24:05;;;;;;;1.50;1.40;;;16.70;93.90;;;;;;4004093;29;20060;-61
2022/10/19 09:26:52;;;;;;;0.00;0.00;;;16.80;94.00;;;;;;4014927;29;20056;-62
2022/10/19 09:29:40;;;;;;;6.43;0.80;;;16.80;93.90;;;;;;4014680;29;20048;-60
2022/10/19 09:32:25;;;;;;;0.22;0.22;;;16.80;93.00;;;;;;4015004;29;20052;-63
2022/10/19 09:35:17;;;;;;;0.17;0.17;;;16.80;92.70;;;;;;4014953;29;20048;-64
2022/10/19 09:37:58;;;;;;;0.22;0.22;;;16.80;92.40;;;;;;4014516;29;20563;-63
2022/10/19 09:40:40;;;;;;;0.00;0.00;;;16.80;92.50;;;;;;4015014;29;20060;-64
2022/10/19 09:43:22;;;;;;;0.00;0.00;;;16.80;92.60;;;;;;4014939;29;20092;-63
2022/10/19 09:46:10;;;;;;;0.00;0.00;;;16.80;92.60;;;;;;4015372;29;20056;-64
2022/10/19 09:49:01;;;;;;;0.00;0.00;;;16.80;92.30;;;;;;4014402;29;20484;-64
2022/10/19 09:51:50;;;;;;;0.03;0.03;;;16.80;92.20;;;;;;4015131;29;20048;-64
2022/10/19 09:54:36;;;;;;;0.47;0.47;;;16.80;92.30;;;;;;4015202;29;20056;-64
2022/10/19 09:57:23;;;;;;;1.42;1.35;;;16.80;92.20;;;;;;4020046;29;20060;-64
2022/10/19 10:00:04;;;;;;;0.15;0.15;;;16.80;92.20;;;;;;4027193;29;20189;-64
2022/10/19 10:02:51;;;;;;;0.15;0.15;;;16.80;92.20;;;;;;4021637;29;20063;-64
2022/10/19 10:05:35;;;;;;;0.00;0.00;;;16.80;92.20;;;;;;4016935;29;20063;-64
2022/10/19 10:08:20;;;;;;;0.00;0.00;;;16.80;92.10;;;;;;4015630;29;20059;-64
2022/10/19 10:11:08;;;;;;;0.00;0.00;;;16.80;91.80;;;;;;4025192;29;20148;-64
2022/10/19 10:13:53;;;;;;;0.20;0.20;;;16.80;91.90;;;;;;4014867;29;20397;-64
2022/10/19 10:16:35;;;;;;;0.20;0.20;;;16.80;91.80;;;;;;4024462;29;20055;-64
2022/10/19 10:19:17;;;;;;;0.10;0.10;;;16.80;91.40;;;;;;4022979;29;20234;-64
2022/10/19 10:22:00;;;;;;;1.67;1.48;;;16.80;91.60;;;;;;4017015;29;20060;-63
2022/10/19 10:24:52;;;;;;;0.10;0.10;;;16.80;91.70;;;;;;4022419;29;20148;-64
2022/10/19 10:27:35;;;;;;;1.83;1.40;;;16.80;91.80;;;;;;4013768;29;20157;-64
2022/10/19 10:30:18;;;;;;;0.05;0.05;;;16.80;91.70;;;;;;4027145;29;20116;-65
2022/10/19 10:33:00;;;;;;;0.00;0.00;;;16.80;91.70;;;;;;4028851;29;20602;-65
2022/10/19 10:35:48;;;;;;;0.00;0.00;;;16.80;91.50;;;;;;4026553;29;20156;-65
2022/10/19 10:38:34;;;;;;;0.00;0.00;;;16.80;91.50;;;;;;4027169;29;20080;-65
2022/10/19 10:41:17;;;;;;;0.25;0.25;;;16.80;91.50;;;;;;4007822;29;20472;-70
2022/10/19 10:44:02;;;;;;;0.00;0.00;;;16.80;91.40;;;;;;3998259;29;20143;-65
2022/10/19 10:46:52;;;;;;;0.00;0.00;;;16.80;91.50;;;;;;4014102;29;20408;-67
2022/10/19 10:49:35;;;;;;;0.00;0.00;;;16.80;91.40;;;;;;4008830;29;20060;-65
2022/10/19 10:52:19;;;;;;;0.00;0.00;;;16.90;91.20;;;;;;4003798;29;20081;-66
2022/10/19 10:55:02;;;;;;;0.00;0.00;;;16.80;91.00;;;;;;4009864;29;20140;-66
2022/10/19 10:57:46;;;;;;;0.00;0.00;;;16.90;91.30;;;;;;4007204;29;20163;-65
2022/10/19 11:00:29;;;;;;;0.00;0.00;;;16.90;91.30;;;;;;4013800;29;20079;-65
2022/10/19 11:03:19;;;;;;;0.00;0.00;;;16.80;91.30;;;;;;4011124;29;20187;-66
2022/10/19 11:06:01;;;;;;;0.00;0.00;;;16.90;90.90;;;;;;4010777;29;20840;-66
2022/10/19 11:08:48;;;;;;;0.10;0.10;;;16.90;91.30;;;;;;4013713;29;20073;-65
2022/10/19 11:11:35;;;;;;;0.10;0.10;;;16.90;91.30;;;;;;4013813;29;20073;-61
2022/10/19 11:14:30;;;;;;;0.00;0.00;;;16.90;91.30;;;;;;4000362;29;20064;-61
2022/10/19 11:17:17;;;;;;;0.10;0.10;;;16.90;91.10;;;;;;4001953;29;20136;-61
2022/10/19 11:19:59;;;;;;;0.00;0.00;;;16.90;90.80;;;;;;4013712;29;20060;-60
2022/10/19 11:22:47;;;;;;;0.00;0.00;;;16.90;91.10;;;;;;4010936;29;20142;-61
2022/10/19 11:25:36;;;;;;;0.00;0.00;;;16.90;90.90;;;;;;4013507;29;20072;-62
2022/10/19 11:28:34;;;;;;;0.10;0.10;;;16.90;91.10;;;;;;4013319;29;20057;-62
2022/10/19 11:31:19;;;;;;;0.00;0.00;;;16.90;91.10;;;;;;3980259;29;20076;-62
2022/10/19 11:34:10;;;;;;;0.00;0.00;;;16.90;91.50;;;;;;4012210;29;20044;-61
2022/10/19 11:36:58;;;;;;;0.00;0.00;;;16.90;91.60;;;;;;4002545;29;20207;-63
2022/10/19 11:39:51;;;;;;;0.52;0.52;;;17.00;91.60;;;;;;4010796;29;20057;-63
2022/10/19 11:42:47;;;;;;;1.02;1.02;;;17.00;91.60;;;;;;4012545;29;20052;-61
2022/10/19 11:45:38;;;;;;;0.32;0.32;;;17.00;91.70;;;;;;4013148;29;20469;-62
2022/10/19 11:48:50;;;;;;;0.47;0.47;;;17.00;91.50;;;;;;4010754;29;20064;-61
2022/10/19 11:51:39;;;;;;;0.00;0.00;;;17.00;91.40;;;;;;4012218;29;20516;-67
2022/10/19 11:54:37;;;;;;;0.45;0.45;;;17.00;90.00;;;;;;4011022;29;20057;-66
2022/10/19 11:57:24;;;;;;;0.00;0.00;;;17.00;90.60;;;;;;4012398;29;20124;-66
2022/10/19 12:00:09;;;;;;;0.00;0.00;;;17.00;90.70;;;;;;4012546;29;20055;-68
2022/10/19 12:03:16;;;;;;;0.00;0.00;;;17.00;89.70;;;;;;4010942;29;20077;-66
2022/10/19 12:06:08;;;;;;;0.00;0.00;;;17.00;89.50;;;;;;4013080;29;20056;-65
2022/10/19 12:09:05;;;;;;;0.75;0.75;;;17.00;89.40;;;;;;4012662;29;20125;-65
2022/10/19 12:12:06;;;;;;;0.00;0.00;;;17.00;88.90;;;;;;4012660;29;20544;-64
2022/10/19 12:14:51;;;;;;;0.10;0.10;;;17.00;90.00;;;;;;4013061;29;20052;-64
2022/10/19 12:17:37;;;;;;;0.00;0.00;;;17.00;89.90;;;;;;4009975;29;20120;-64
2022/10/19 12:20:24;;;;;;;0.00;0.00;;;17.00;90.00;;;;;;4010465;29;20378;-64
2022/10/19 12:23:17;;;;;;;0.00;0.00;;;17.00;90.30;;;;;;4009916;29;20070;-65
2022/10/19 12:26:00;;;;;;;8.77;1.17;;;17.10;90.40;;;;;;4011558;29;20133;-62
2022/10/19 12:28:48;;;;;;;0.00;0.00;;;17.10;90.60;;;;;;4012742;29;20073;-62
2022/10/19 12:31:30;;;;;;;0.00;0.00;;;17.10;90.70;;;;;;4010352;29;20063;-62
2022/10/19 12:34:22;;;;;;;0.00;0.00;;;17.10;90.70;;;;;;3983124;29;20508;-62
2022/10/19 12:37:11;;;;;;;0.00;0.00;;;17.10;91.00;;;;;;4012068;29;20069;-62
2022/10/19 12:39:57;;;;;;;0.60;0.55;;;17.10;91.10;;;;;;4001688;29;20091;-62
2022/10/19 12:42:51;;;;;;;0.80;0.80;;;17.10;91.50;;;;;;4012932;29;20071;-62
2022/10/19 12:45:36;;;;;;;0.20;0.20;;;17.10;91.80;;;;;;4012600;29;20425;-62
2022/10/19 12:48:24;;;;;;;0.00;0.00;;;17.10;91.80;;;;;;4012778;29;20128;-62
2022/10/19 12:51:14;;;;;;;0.00;0.00;;;17.20;91.90;;;;;;4012948;29;20072;-62
2022/10/19 12:54:08;;;;;;;0.00;0.00;;;17.20;91.80;;;;;;4012844;29;20229;-61
2022/10/19 12:56:52;;;;;;;0.00;0.00;;;17.20;91.40;;;;;;4015239;29;20521;-63
2022/10/19 12:59:35;;;;;;;0.05;0.05;;;17.20;91.30;;;;;;4019414;29;20059;-62
2022/10/19 13:02:27;;;;;;;0.00;0.00;;;17.20;91.30;;;;;;4030089;29;20405;-62
2022/10/19 13:05:20;;;;;;;0.10;0.10;;;17.20;91.20;;;;;;4015337;29;20091;-62
2022/10/19 13:08:03;;;;;;;0.35;0.35;;;17.30;91.00;;;;;;4025879;29;20052;-63
2022/10/19 13:11:04;;;;;;;0.00;0.00;;;17.20;91.00;;;;;;4029630;29;20051;-65
2022/10/19 13:13:54;;;;;;;0.00;0.00;;;17.20;90.80;;;;;;4019276;29;20052;-65
2022/10/19 13:16:55;;;;;;;0.00;0.00;;;17.30;90.60;;;;;;4012354;29;20541;-64
2022/10/19 13:19:39;;;;;;;0.00;0.00;;;17.30;90.90;;;;;;4005912;29;20049;-64
2022/10/19 13:22:29;;;;;;;0.00;0.00;;;17.40;91.10;;;;;;4007747;29;20056;-64
2022/10/19 13:25:26;;;;;;;5.95;1.02;;;17.40;90.90;;;;;;4015772;29;20056;-64
2022/10/19 13:28:44;;;;;;;0.00;0.00;;;17.40;90.90;;;;;;4012818;29;20489;-65
2022/10/19 13:31:27;;;;;;;0.00;0.00;;;17.40;90.90;;;;;;4015193;29;20068;-64
2022/10/19 13:34:11;;;;;;;0.10;0.10;;;17.40;90.70;;;;;;4015392;29;20060;-65
2022/10/19 13:37:03;;;;;;;0.00;0.00;;;17.50;90.80;;;;;;4013719;29;20496;-65
2022/10/19 13:39:44;;;;;;;0.43;0.43;;;17.50;91.00;;;;;;4020682;29;20396;-66
2022/10/19 13:42:27;;;;;;;0.00;0.00;;;17.50;91.00;;;;;;4007760;29;20064;-66
2022/10/19 13:45:21;;;;;;;0.00;0.00;;;17.50;90.90;;;;;;4003791;29;20061;-66
2022/10/19 13:48:10;;;;;;;1.23;1.13;;;17.60;90.90;;;;;;4002974;29;20075;-65
2022/10/19 13:50:58;;;;;;;0.00;0.00;;;17.60;90.70;;;;;;4001148;29;20189;-66
2022/10/19 13:53:47;;;;;;;0.00;0.00;;;17.60;90.80;;;;;;4000655;29;20167;-64
2022/10/19 13:56:37;;;;;;;0.00;0.00;;;17.60;90.60;;;;;;4000208;29;20084;-64
2022/10/19 13:59:41;;;;;;;0.00;0.00;;;17.60;90.70;;;;;;4000283;29;20140;-64
2022/10/19 14:02:50;;;;;;;0.00;0.00;;;17.60;90.80;;;;;;3996917;29;20074;-64
2022/10/19 14:05:50;;;;;;;0.00;0.00;;;17.60;90.60;;;;;;3999824;29;20061;-65
2022/10/19 14:08:56;;;;;;;0.00;0.00;;;17.70;90.80;;;;;;4015162;29;20456;-65
2022/10/19 14:11:39;;;;;;;0.00;0.00;;;17.60;90.60;;;;;;3999119;29;20477;-64
2022/10/19 14:14:22;;;;;;;0.00;0.00;;;17.70;90.40;;;;;;4014704;29;20121;-65
2022/10/19 14:17:03;;;;;;;0.00;0.00;;;17.70;90.40;;;;;;4014276;29;20109;-64
2022/10/19 14:19:46;;;;;;;0.00;0.00;;;17.70;90.50;;;;;;4014737;29;20096;-65
2022/10/19 14:22:29;;;;;;;0.00;0.00;;;17.70;90.40;;;;;;4014801;29;20178;-65